createdAt,value
2022-12-08T00:01:10.039Z,3.67
2022-12-08T00:03:45.345Z,3.38
2022-12-08T00:06:43.354Z,3.38
2022-12-08T00:09:25.365Z,3.45
2022-12-08T00:12:00.709Z,3.80
2022-12-08T00:14:39.217Z,3.97
2022-12-08T00:17:15.723Z,4.78
2022-12-08T00:19:50.579Z,4.22
2022-12-08T00:22:24.024Z,3.85
2022-12-08T00:24:57.698Z,3.92
2022-12-08T00:27:31.201Z,3.38
2022-12-08T00:30:05.641Z,3.72
2022-12-08T00:32:39.097Z,3.47
2022-12-08T00:35:14.024Z,3.65
2022-12-08T00:37:50.486Z,3.70
2022-12-08T00:40:26.212Z,3.55
2022-12-08T00:42:59.628Z,3.10
2022-12-08T00:45:33.045Z,4.05
2022-12-08T00:48:09.309Z,3.40
2022-12-08T00:50:44.209Z,3.33
2022-12-08T00:53:17.728Z,3.22
2022-12-08T00:55:51.139Z,3.40
2022-12-08T00:58:24.577Z,3.53
2022-12-08T01:00:58.091Z,3.58
2022-12-08T01:03:31.607Z,3.90
2022-12-08T01:06:09.150Z,3.78
2022-12-08T01:08:43.260Z,4.00
2022-12-08T01:11:19.766Z,4.88
2022-12-08T01:13:53.224Z,4.15
2022-12-08T01:16:28.813Z,4.53
2022-12-08T01:19:02.704Z,4.72
2022-12-08T01:21:37.555Z,4.22
2022-12-08T01:24:13.432Z,4.20
2022-12-08T01:26:47.583Z,4.65
2022-12-08T01:29:21.313Z,4.22
2022-12-08T01:31:54.925Z,3.80
2022-12-08T01:34:28.389Z,4.13
2022-12-08T01:37:03.346Z,4.07
2022-12-08T01:39:36.879Z,3.47
2022-12-08T01:42:21.242Z,3.45
2022-12-08T01:45:01.279Z,4.10
2022-12-08T01:47:39.509Z,3.47
2022-12-08T01:50:15.289Z,3.67
2022-12-08T01:52:54.514Z,3.67
2022-12-08T01:55:34.253Z,3.90
2022-12-08T01:58:12.920Z,4.32
2022-12-08T02:00:46.756Z,3.92
2022-12-08T02:03:25.531Z,3.95
2022-12-08T02:05:59.948Z,4.90
2022-12-08T02:08:36.216Z,4.35
2022-12-08T02:11:12.115Z,4.90
2022-12-08T02:13:47.567Z,4.40
2022-12-08T02:16:36.692Z,4.07
2022-12-08T02:19:48.527Z,4.78
2022-12-08T02:22:29.557Z,4.40
2022-12-08T02:25:13.751Z,5.03
2022-12-08T02:28:00.141Z,5.18
2022-12-08T02:30:45.301Z,4.90
2022-12-08T02:33:56.969Z,5.30
2022-12-08T02:36:38.717Z,4.95
2022-12-08T02:39:24.703Z,5.30
2022-12-08T02:42:08.252Z,5.22
2022-12-08T02:44:49.042Z,5.25
2022-12-08T02:47:25.116Z,5.28
2022-12-08T02:50:00.721Z,5.28
2022-12-08T02:52:45.037Z,5.60
2022-12-08T02:55:24.834Z,6.95
2022-12-08T02:58:14.539Z,7.05
2022-12-08T03:01:02.459Z,7.25
2022-12-08T03:03:42.983Z,6.85
2022-12-08T03:06:29.898Z,7.07
2022-12-08T03:09:11.391Z,6.85
2022-12-08T03:11:51.933Z,6.75
2022-12-08T03:14:26.307Z,7.82
2022-12-08T03:17:01.978Z,8.00
2022-12-08T03:19:39.186Z,8.43
2022-12-08T03:22:17.155Z,8.43
2022-12-08T03:24:51.492Z,7.60
2022-12-08T03:27:29.407Z,7.78
2022-12-08T03:30:03.975Z,8.50
2022-12-08T03:32:47.847Z,7.95
2022-12-08T03:35:26.106Z,8.68
2022-12-08T03:38:06.101Z,8.52
2022-12-08T03:40:40.263Z,7.97
2022-12-08T03:43:13.705Z,8.15
2022-12-08T03:45:47.273Z,8.38
2022-12-08T03:48:20.727Z,7.50
2022-12-08T03:50:54.284Z,7.72
2022-12-08T03:53:29.567Z,8.40
2022-12-08T03:56:05.695Z,8.20
2022-12-08T03:58:39.189Z,8.80
2022-12-08T04:01:13.031Z,8.70
2022-12-08T04:03:46.585Z,8.60
2022-12-08T04:06:20.595Z,8.30
2022-12-08T04:11:28.939Z,9.98
2022-12-08T04:14:02.489Z,11.10
2022-12-08T04:16:36.191Z,11.30
2022-12-08T04:19:10.200Z,11.52
2022-12-08T04:21:43.652Z,11.82
2022-12-08T04:24:18.716Z,11.68
2022-12-08T04:26:52.231Z,10.30
2022-12-08T04:29:25.866Z,9.75
2022-12-08T04:31:59.430Z,9.60
2022-12-08T04:34:33.086Z,8.70
2022-12-08T04:37:06.635Z,10.10
2022-12-08T04:39:41.673Z,8.20
2022-12-08T04:42:15.120Z,9.05
2022-12-08T04:44:48.521Z,8.07
2022-12-08T04:47:22.421Z,8.57
2022-12-08T04:49:55.903Z,7.93
2022-12-08T04:52:29.378Z,11.05
2022-12-08T04:55:04.906Z,11.35
2022-12-08T04:57:38.803Z,12.40
2022-12-08T05:00:13.790Z,11.93
2022-12-08T05:02:47.314Z,11.50
2022-12-08T05:05:20.866Z,13.32
2022-12-08T05:07:54.421Z,11.25
2022-12-08T05:10:29.371Z,9.25
2022-12-08T05:13:03.088Z,9.52
2022-12-08T05:15:36.639Z,8.10
2022-12-08T05:18:10.219Z,9.05
2022-12-08T05:20:43.637Z,8.40
2022-12-08T05:23:17.087Z,8.68
2022-12-08T05:25:51.893Z,9.70
2022-12-08T05:28:42.730Z,8.18
2022-12-08T05:31:18.501Z,8.82
2022-12-08T05:33:53.209Z,9.38
2022-12-08T05:36:26.786Z,11.65
2022-12-08T05:39:00.511Z,11.52
2022-12-08T05:41:35.595Z,10.25
2022-12-08T05:44:09.283Z,9.55
2022-12-08T05:46:42.894Z,8.68
2022-12-08T05:49:16.533Z,10.23
2022-12-08T05:51:50.194Z,10.00
2022-12-08T05:54:24.143Z,8.52
2022-12-08T05:59:32.347Z,8.80
2022-12-08T06:02:05.963Z,8.82
2022-12-08T06:04:39.488Z,9.68
2022-12-08T06:07:16.031Z,9.95
2022-12-08T06:09:49.833Z,9.93
2022-12-08T06:12:24.898Z,10.15
2022-12-08T06:14:58.361Z,9.80
2022-12-08T06:17:32.027Z,10.00
2022-12-08T06:20:07.105Z,12.70
2022-12-08T06:22:40.856Z,12.65
2022-12-08T06:25:14.650Z,11.38
2022-12-08T06:27:49.606Z,10.75
2022-12-08T06:30:23.198Z,9.75
2022-12-08T06:32:56.909Z,10.05
2022-12-08T06:35:30.500Z,11.38
2022-12-08T06:38:03.961Z,12.75
2022-12-08T06:40:37.552Z,12.32
2022-12-08T06:43:12.430Z,12.13
2022-12-08T06:45:46.018Z,10.55
2022-12-08T06:48:20.510Z,12.80
2022-12-08T06:50:54.041Z,13.70
2022-12-08T06:53:27.509Z,15.30
2022-12-08T06:56:01.180Z,15.32
2022-12-08T06:58:36.962Z,15.13
2022-12-08T07:01:12.548Z,14.18
2022-12-08T07:03:46.474Z,13.38
2022-12-08T07:06:23.098Z,12.13
2022-12-08T07:08:56.658Z,10.88
2022-12-08T07:11:30.410Z,10.73
2022-12-08T07:14:05.334Z,11.60
2022-12-08T07:16:39.620Z,11.75
2022-12-08T07:19:13.193Z,10.55
2022-12-08T07:21:46.827Z,11.80
2022-12-08T07:24:22.799Z,11.23
2022-12-08T07:26:56.303Z,12.23
2022-12-08T07:29:31.313Z,15.27
2022-12-08T07:32:04.895Z,15.25
2022-12-08T07:34:38.420Z,16.20
2022-12-08T07:37:12.149Z,17.17
2022-12-08T07:39:45.724Z,16.48
2022-12-08T07:42:19.260Z,17.88
2022-12-08T07:44:55.004Z,17.27
2022-12-08T07:47:28.569Z,17.02
2022-12-08T07:50:02.373Z,17.98
2022-12-08T07:55:10.099Z,17.90
2022-12-08T07:57:43.615Z,19.70
2022-12-08T08:00:19.443Z,22.13
2022-12-08T08:02:53.017Z,21.77
2022-12-08T08:05:26.649Z,22.33
2022-12-08T08:08:00.306Z,21.23
2022-12-08T08:10:33.923Z,22.33
2022-12-08T08:13:07.410Z,22.30
2022-12-08T08:15:42.469Z,23.85
2022-12-08T08:18:16.103Z,22.85
2022-12-08T08:20:49.649Z,22.08
2022-12-08T08:23:23.094Z,23.05
2022-12-08T08:25:56.965Z,23.48
2022-12-08T08:31:05.632Z,21.92
2022-12-08T08:33:39.145Z,22.85
2022-12-08T08:36:12.872Z,24.40
2022-12-08T08:38:46.291Z,24.35
2022-12-08T08:41:19.766Z,25.92
2022-12-08T08:43:53.221Z,23.33
2022-12-08T08:46:28.180Z,23.33
2022-12-08T08:49:02.254Z,25.95
2022-12-08T08:54:08.795Z,20.63
2022-12-08T08:56:42.337Z,20.10
2022-12-08T08:59:15.862Z,18.75
2022-12-08T09:01:50.961Z,19.38
2022-12-08T09:04:25.781Z,18.27
2022-12-08T09:06:59.624Z,17.33
2022-12-08T09:09:33.141Z,18.35
2022-12-08T09:12:07.545Z,17.65
2022-12-08T09:14:41.229Z,17.40
2022-12-08T09:17:16.275Z,17.70
2022-12-08T09:19:49.957Z,17.15
2022-12-08T09:22:23.869Z,17.80
2022-12-08T09:27:30.679Z,18.05
2022-12-08T09:30:04.901Z,18.83
2022-12-08T09:32:40.179Z,18.05
2022-12-08T09:35:13.775Z,20.10
2022-12-08T09:37:47.485Z,22.25
2022-12-08T09:40:24.028Z,22.70
2022-12-08T09:43:06.470Z,22.10
2022-12-08T09:45:40.599Z,23.48
2022-12-08T09:48:20.281Z,23.40
2022-12-08T09:50:56.547Z,24.40
2022-12-08T09:53:36.068Z,24.02
2022-12-08T09:56:16.355Z,23.83
2022-12-08T09:58:54.691Z,24.30
2022-12-08T10:01:30.392Z,24.30
2022-12-08T10:04:07.619Z,23.13
2022-12-08T10:06:48.428Z,22.48
2022-12-08T10:09:30.632Z,25.83
2022-12-08T10:12:13.808Z,20.80
2022-12-08T10:14:54.702Z,19.20
2022-12-08T10:17:34.568Z,19.45
2022-12-08T10:20:17.154Z,22.05
2022-12-08T10:22:57.383Z,20.67
2022-12-08T10:25:37.733Z,20.42
2022-12-08T10:28:11.758Z,20.50
2022-12-08T10:30:45.204Z,20.02
2022-12-08T10:33:20.885Z,19.35
2022-12-08T10:35:58.555Z,22.50
2022-12-08T10:38:34.268Z,21.95
2022-12-08T10:41:13.779Z,20.45
2022-12-08T10:43:49.557Z,19.90
2022-12-08T10:46:25.971Z,21.98
2022-12-08T10:49:13.764Z,20.30
2022-12-08T10:51:48.630Z,21.00
2022-12-08T10:54:30.350Z,22.15
2022-12-08T10:57:03.775Z,21.67
2022-12-08T10:59:37.257Z,21.08
2022-12-08T11:02:19.716Z,20.45
2022-12-08T11:05:00.589Z,21.05
2022-12-08T11:07:35.484Z,22.30
2022-12-08T11:10:20.281Z,21.40
2022-12-08T11:12:53.767Z,22.50
2022-12-08T11:15:27.421Z,21.65
2022-12-08T11:18:08.012Z,23.58
2022-12-08T11:20:42.961Z,23.85
2022-12-08T11:23:25.487Z,22.83
2022-12-08T11:26:06.375Z,22.17
2022-12-08T11:28:40.489Z,23.55
2022-12-08T11:31:23.708Z,22.25
2022-12-08T11:33:57.919Z,23.58
2022-12-08T11:36:34.891Z,23.63
2022-12-08T11:39:14.027Z,24.10
2022-12-08T11:41:47.952Z,22.42
2022-12-08T11:44:30.304Z,25.50
2022-12-08T11:47:10.018Z,25.05
2022-12-08T11:52:25.531Z,25.58
2022-12-08T11:55:07.339Z,26.08
2022-12-08T11:57:40.869Z,25.63
2022-12-08T12:00:17.727Z,27.90
2022-12-08T12:02:58.003Z,27.30
2022-12-08T12:06:08.815Z,27.45
2022-12-08T12:08:46.738Z,27.42
2022-12-08T12:11:45.796Z,27.08
2022-12-08T12:14:41.797Z,26.25
2022-12-08T12:17:33.912Z,26.92
2022-12-08T12:20:16.012Z,27.80
2022-12-08T12:22:53.287Z,27.73
2022-12-08T12:25:28.610Z,28.13
2022-12-08T12:28:06.956Z,26.52
2022-12-08T12:30:55.249Z,29.50
2022-12-08T12:33:31.402Z,26.80
2022-12-08T12:36:08.324Z,28.95
2022-12-08T12:39:04.372Z,27.50
2022-12-08T12:41:44.863Z,26.55
2022-12-08T12:44:40.325Z,28.17
2022-12-08T12:47:16.546Z,26.85
2022-12-08T12:50:37.229Z,26.67
2022-12-08T12:53:43.869Z,24.77
2022-12-08T12:56:50.367Z,23.83
2022-12-08T12:59:42.675Z,22.75
2022-12-08T13:02:26.201Z,21.42
2022-12-08T13:05:03.664Z,20.13
2022-12-08T13:07:43.856Z,19.98
2022-12-08T13:10:21.572Z,22.63
2022-12-08T13:13:17.677Z,21.55
2022-12-08T13:15:54.627Z,20.52
2022-12-08T13:18:36.509Z,19.08
2022-12-08T13:21:15.238Z,19.75
2022-12-08T13:23:50.537Z,17.40
2022-12-08T13:26:25.890Z,19.23
2022-12-08T13:29:23.865Z,20.15
2022-12-08T13:31:59.322Z,21.52
2022-12-08T13:34:39.403Z,20.10
2022-12-08T13:37:26.649Z,20.10
2022-12-08T13:40:03.931Z,20.90
2022-12-08T13:42:45.054Z,18.42
2022-12-08T13:48:44.619Z,18.13
2022-12-08T13:57:26.268Z,18.20
2022-12-08T14:00:03.053Z,18.58
2022-12-08T14:02:48.872Z,19.60
2022-12-08T14:05:47.733Z,19.30
2022-12-08T14:08:57.456Z,20.55
2022-12-08T14:11:34.759Z,20.02
2022-12-08T14:14:10.962Z,20.23
2022-12-08T14:16:49.800Z,21.90
2022-12-08T14:19:25.712Z,20.77
2022-12-08T14:22:02.519Z,21.83
2022-12-08T14:24:36.239Z,19.60
2022-12-08T14:27:13.421Z,20.00
2022-12-08T14:29:48.829Z,20.38
2022-12-08T14:32:28.801Z,22.40
2022-12-08T14:35:12.622Z,20.83
2022-12-08T14:37:49.691Z,22.77
2022-12-08T14:40:26.077Z,22.00
2022-12-08T14:43:16.406Z,23.70
2022-12-08T14:45:55.649Z,21.08
2022-12-08T14:48:42.294Z,20.67
2022-12-08T14:51:23.886Z,22.00
2022-12-08T14:54:01.387Z,19.23
2022-12-08T14:56:38.671Z,19.45
2022-12-08T14:59:15.922Z,20.23
2022-12-08T15:01:51.204Z,20.80
2022-12-08T15:04:27.628Z,20.42
2022-12-08T15:07:06.270Z,22.65
2022-12-08T15:09:43.657Z,23.33
2022-12-08T15:12:27.129Z,22.17
2022-12-08T15:15:15.226Z,24.42
2022-12-08T15:17:52.480Z,26.48
2022-12-08T15:20:35.583Z,26.77
2022-12-08T15:23:29.823Z,28.73
2022-12-08T15:26:06.578Z,28.05
2022-12-08T15:28:40.176Z,32.85
2022-12-08T15:31:13.856Z,32.85
2022-12-08T15:33:47.723Z,34.05
2022-12-08T15:36:21.174Z,36.45
2022-12-08T15:38:54.786Z,36.92
2022-12-08T15:41:29.682Z,33.58
2022-12-08T15:44:03.239Z,33.83
2022-12-08T15:46:38.121Z,32.38
2022-12-08T15:49:18.406Z,32.45
2022-12-08T15:51:57.404Z,31.73
2022-12-08T15:54:38.488Z,32.38
2022-12-08T16:00:51.929Z,33.40
2022-12-08T16:04:14.292Z,33.38
2022-12-08T16:09:20.887Z,34.72
2022-12-08T16:12:12.037Z,33.47
2022-12-08T16:15:48.480Z,34.00
2022-12-08T16:17:41.285Z,33.15
2022-12-08T16:20:17.129Z,33.50
2022-12-08T16:22:59.239Z,33.10
2022-12-08T16:26:16.320Z,34.03
2022-12-08T16:31:30.002Z,30.55
2022-12-08T16:34:03.837Z,31.08
2022-12-08T16:36:37.314Z,28.48
2022-12-08T16:39:13.914Z,29.13
2022-12-08T16:42:04.868Z,27.30
2022-12-08T16:44:42.302Z,26.95
2022-12-08T16:47:17.242Z,26.58
2022-12-08T16:49:50.648Z,27.73
2022-12-08T16:52:24.329Z,26.67
2022-12-08T16:55:00.111Z,26.02
2022-12-08T16:57:33.547Z,25.83
2022-12-08T17:00:09.615Z,24.08
2022-12-08T17:02:45.333Z,25.10
2022-12-08T17:05:21.369Z,23.27
2022-12-08T17:07:55.569Z,24.05
2022-12-08T17:10:31.763Z,24.52
2022-12-08T17:13:05.466Z,24.33
2022-12-08T17:15:41.189Z,22.67
2022-12-08T17:18:16.189Z,23.70
2022-12-08T17:20:49.659Z,23.67
2022-12-08T17:23:23.142Z,24.50
2022-12-08T17:26:01.182Z,24.10
2022-12-08T17:28:58.858Z,23.42
2022-12-08T17:31:30.227Z,22.77
2022-12-08T17:34:09.728Z,22.80
2022-12-08T17:36:43.371Z,23.52
2022-12-08T17:39:18.914Z,23.35
2022-12-08T17:41:55.902Z,24.08
2022-12-08T17:44:29.580Z,23.17
2022-12-08T17:47:04.010Z,23.95
2022-12-08T17:49:42.077Z,26.90
2022-12-08T17:52:21.497Z,22.80
2022-12-08T17:54:55.100Z,23.45
2022-12-08T17:57:28.563Z,22.55
2022-12-08T18:00:02.020Z,22.63
2022-12-08T18:02:45.340Z,24.33
2022-12-08T18:05:21.102Z,23.30
2022-12-08T18:07:54.762Z,23.80
2022-12-08T18:10:28.547Z,21.90
2022-12-08T18:13:05.678Z,21.98
2022-12-08T18:15:39.516Z,23.60
2022-12-08T18:18:13.023Z,22.67
2022-12-08T18:20:48.048Z,23.80
2022-12-08T18:23:21.488Z,24.02
2022-12-08T18:25:54.966Z,24.52
2022-12-08T18:28:28.424Z,22.92
2022-12-08T18:31:02.159Z,23.15
2022-12-08T18:33:35.675Z,23.20
2022-12-08T18:36:13.033Z,22.95
2022-12-08T18:38:46.568Z,22.27
2022-12-08T18:41:23.531Z,23.63
2022-12-08T18:43:58.280Z,22.65
2022-12-08T18:46:31.916Z,23.95
2022-12-08T18:49:05.470Z,27.27
2022-12-08T18:51:40.498Z,27.92
2022-12-08T18:54:14.476Z,29.30
2022-12-08T18:59:22.988Z,27.60
2022-12-08T19:01:57.341Z,27.42
2022-12-08T19:04:34.683Z,24.35
2022-12-08T19:07:12.544Z,25.48
2022-12-08T19:09:46.013Z,27.25
2022-12-08T19:12:19.505Z,24.75
2022-12-08T19:14:52.986Z,24.10
2022-12-08T19:17:26.965Z,22.27
2022-12-08T19:22:35.025Z,21.40
2022-12-08T19:25:09.280Z,23.48
2022-12-08T19:27:42.726Z,22.60
2022-12-08T19:30:16.943Z,23.38
2022-12-08T19:32:51.610Z,23.50
2022-12-08T19:35:25.281Z,23.80
2022-12-08T19:38:00.317Z,24.52
2022-12-08T19:40:51.234Z,24.83
2022-12-08T19:43:47.601Z,23.85
2022-12-08T19:46:21.145Z,24.25
2022-12-08T19:48:55.696Z,22.83
2022-12-08T19:51:29.331Z,24.30
2022-12-08T19:54:06.872Z,24.83
2022-12-08T19:56:40.378Z,24.73
2022-12-08T19:59:15.887Z,25.42
2022-12-08T20:01:49.731Z,25.38
2022-12-08T20:04:24.185Z,23.83
2022-12-08T20:06:58.911Z,25.65
2022-12-08T20:09:33.900Z,24.05
2022-12-08T20:12:08.359Z,24.15
2022-12-08T20:14:45.891Z,24.27
2022-12-08T20:17:19.709Z,21.77
2022-12-08T20:19:53.417Z,23.23
2022-12-08T20:22:26.907Z,23.80
2022-12-08T20:25:04.804Z,22.58
2022-12-08T20:27:38.293Z,22.65
2022-12-08T20:30:16.991Z,24.50
2022-12-08T20:32:50.743Z,24.33
2022-12-08T20:35:24.595Z,24.42
2022-12-08T20:38:00.982Z,25.77
2022-12-08T20:40:35.989Z,24.15
2022-12-08T20:43:11.531Z,25.25
2022-12-08T20:45:45.037Z,26.48
2022-12-08T20:48:19.097Z,29.60
2022-12-08T20:50:52.904Z,30.60
2022-12-08T20:53:26.478Z,28.02
2022-12-08T20:56:01.933Z,31.92
2022-12-08T20:58:37.363Z,34.45
2022-12-08T21:01:14.964Z,35.20
2022-12-08T21:03:50.513Z,31.65
2022-12-08T21:06:27.019Z,33.33
2022-12-08T21:09:01.567Z,29.48
2022-12-08T21:11:37.165Z,28.27
2022-12-08T21:14:10.837Z,29.15
2022-12-08T21:16:45.931Z,28.63
2022-12-08T21:19:20.834Z,29.42
2022-12-08T21:21:54.456Z,31.23
2022-12-08T21:24:34.233Z,29.98
2022-12-08T21:27:10.171Z,28.88
2022-12-08T21:29:44.905Z,28.55
2022-12-08T21:32:18.422Z,30.58
2022-12-08T21:34:52.087Z,27.45
2022-12-08T21:37:28.723Z,28.23
2022-12-08T21:40:02.205Z,26.67
2022-12-08T21:42:46.829Z,29.35
2022-12-08T21:45:21.972Z,26.60
2022-12-08T21:47:55.857Z,29.13
2022-12-08T21:50:29.713Z,27.85
2022-12-08T21:53:03.489Z,28.88
2022-12-08T21:55:39.788Z,28.48
2022-12-08T21:58:14.801Z,26.83
2022-12-08T22:00:48.526Z,29.08
2022-12-08T22:03:22.199Z,30.02
2022-12-08T22:08:29.707Z,29.10
2022-12-08T22:11:04.542Z,29.35
2022-12-08T22:13:40.968Z,30.63
2022-12-08T22:16:15.513Z,29.85
2022-12-08T22:18:49.362Z,32.00
2022-12-08T22:24:02.996Z,27.38
2022-12-08T22:26:36.834Z,28.17
2022-12-08T22:29:12.171Z,27.85
2022-12-08T22:31:46.249Z,29.17
2022-12-08T22:36:56.100Z,29.52
2022-12-08T22:39:34.332Z,30.85
2022-12-08T22:42:10.172Z,28.88
2022-12-08T22:44:45.322Z,30.88
2022-12-08T22:47:21.815Z,28.48
2022-12-08T22:49:55.524Z,27.65
2022-12-08T22:52:29.373Z,29.38
2022-12-08T22:57:36.524Z,26.67
2022-12-08T23:00:20.655Z,30.85
2022-12-08T23:03:48.860Z,29.20
2022-12-08T23:06:25.438Z,29.13
2022-12-08T23:09:00.942Z,29.65
2022-12-08T23:11:36.280Z,29.38
2022-12-08T23:14:10.074Z,30.52
2022-12-08T23:16:45.583Z,29.27
2022-12-08T23:19:20.971Z,29.10
2022-12-08T23:21:54.600Z,27.25
2022-12-08T23:24:28.347Z,28.42
2022-12-08T23:27:02.322Z,26.63
2022-12-08T23:32:11.719Z,26.15
2022-12-08T23:34:47.014Z,26.30
2022-12-08T23:37:21.922Z,26.50
2022-12-08T23:40:11.013Z,26.23
2022-12-08T23:42:46.885Z,25.30
2022-12-08T23:45:20.763Z,24.77
2022-12-08T23:47:56.007Z,25.00
2022-12-08T23:50:35.203Z,25.90
2022-12-08T23:53:21.732Z,25.00
2022-12-08T23:56:00.787Z,26.25
2022-12-08T23:58:35.591Z,26.52
